Time;durP1;ratioP1;P1;durP2;ratioP2;P2;SDS_P1;SDS_P2;PMS_P1;PMS_P2;Temp;Humidity;BMP_temperature;BMP_pressure;BME280_temperature;BME280_humidity;BME280_pressure;Samples;Min_cycle;Max_cycle;Signal;HPM_P1;HPM_P2
2022/07/29 00:00:08;;;;;;;5.88;2.35;;;;;;;;;;5040805;28;20057;-76
2022/07/29 00:02:34;;;;;;;4.55;2.30;;;;;;;;;;5057768;28;20057;-75
2022/07/29 00:05:00;;;;;;;3.60;2.47;;;;;;;;;;5057214;28;20056;-76
2022/07/29 00:07:26;;;;;;;5.43;2.50;;;;;;;;;;5057091;28;20056;-76
2022/07/29 00:09:52;;;;;;;3.83;2.65;;;;;;;;;;5057702;28;20109;-76
2022/07/29 00:12:22;;;;;;;3.88;2.47;;;;;;;;;;5039915;28;20026;-75
2022/07/29 00:14:48;;;;;;;3.70;2.70;;;;;;;;;;5021832;28;20026;-76
2022/07/29 00:17:14;;;;;;;5.22;2.42;;;;;;;;;;5041455;28;20037;-75
2022/07/29 00:19:40;;;;;;;5.88;2.97;;;;;;;;;;5026118;28;20066;-76
2022/07/29 00:22:06;;;;;;;4.57;2.65;;;;;;;;;;5026798;28;20081;-76
2022/07/29 00:24:32;;;;;;;4.55;2.88;;;;;;;;;;5061248;28;20042;-76
2022/07/29 00:26:59;;;;;;;4.40;2.60;;;;;;;;;;5044248;28;20085;-76
2022/07/29 00:29:25;;;;;;;4.53;2.60;;;;;;;;;;5044245;28;20025;-76
2022/07/29 00:31:51;;;;;;;4.35;2.60;;;;;;;;;;5041463;28;20033;-76
2022/07/29 00:37:02;;;;;;;4.75;2.63;;;;;;;;;;5060385;28;20030;-76
2022/07/29 00:39:28;;;;;;;4.65;2.88;;;;;;;;;;5061037;28;20025;-75
2022/07/29 00:41:54;;;;;;;5.28;2.70;;;;;;;;;;5060920;28;20039;-75
2022/07/29 00:44:20;;;;;;;4.03;2.80;;;;;;;;;;5073294;23;20025;-74
2022/07/29 00:46:46;;;;;;;4.47;2.60;;;;;;;;;;5060628;28;20076;-75
2022/07/29 00:49:13;;;;;;;3.70;2.80;;;;;;;;;;5059711;28;20101;-74
2022/07/29 00:51:39;;;;;;;3.90;2.70;;;;;;;;;;5060249;28;20029;-75
2022/07/29 00:54:05;;;;;;;3.45;2.63;;;;;;;;;;5060737;28;20048;-74
2022/07/29 00:56:32;;;;;;;5.65;2.53;;;;;;;;;;5060218;28;20048;-74
2022/07/29 00:58:59;;;;;;;3.63;2.63;;;;;;;;;;5043620;28;20026;-74
2022/07/29 01:01:25;;;;;;;3.08;2.53;;;;;;;;;;5060478;28;20108;-74
2022/07/29 01:03:52;;;;;;;3.97;2.50;;;;;;;;;;5042828;28;20030;-75
2022/07/29 01:06:18;;;;;;;4.15;3.00;;;;;;;;;;5043456;28;20081;-75
2022/07/29 01:08:45;;;;;;;4.15;2.80;;;;;;;;;;5059279;28;20056;-76
2022/07/29 01:11:12;;;;;;;6.13;3.13;;;;;;;;;;5023850;28;20026;-75
2022/07/29 01:13:38;;;;;;;7.15;3.28;;;;;;;;;;5052124;28;20025;-75
2022/07/29 01:16:08;;;;;;;4.50;3.00;;;;;;;;;;5060538;28;20025;-75
2022/07/29 01:18:38;;;;;;;5.40;3.10;;;;;;;;;;5059905;28;20033;-75
2022/07/29 01:21:23;;;;;;;3.70;2.67;;;;;;;;;;5058620;28;20029;-75
2022/07/29 01:24:08;;;;;;;5.75;2.85;;;;;;;;;;5055931;28;20022;-75
2022/07/29 01:26:58;;;;;;;4.75;2.72;;;;;;;;;;5039756;28;20073;-74
2022/07/29 01:29:41;;;;;;;3.78;2.70;;;;;;;;;;5031207;28;20053;-74
2022/07/29 01:32:10;;;;;;;6.82;3.10;;;;;;;;;;5039888;28;20097;-74
2022/07/29 01:34:36;;;;;;;5.05;2.80;;;;;;;;;;5051292;28;20045;-75
2022/07/29 01:37:11;;;;;;;4.38;2.97;;;;;;;;;;5057941;28;20101;-75
2022/07/29 01:39:38;;;;;;;4.68;2.95;;;;;;;;;;5060121;28;20022;-74
2022/07/29 01:42:10;;;;;;;5.43;2.97;;;;;;;;;;5059783;28;20030;-74
2022/07/29 01:44:40;;;;;;;5.43;3.17;;;;;;;;;;5059616;28;20046;-75
2022/07/29 01:47:11;;;;;;;4.72;3.08;;;;;;;;;;5043966;28;20061;-74
2022/07/29 01:49:40;;;;;;;6.20;3.30;;;;;;;;;;5039695;28;20101;-74
2022/07/29 01:52:09;;;;;;;5.43;3.20;;;;;;;;;;5039022;28;20037;-74
2022/07/29 01:54:35;;;;;;;5.63;3.03;;;;;;;;;;5039779;28;20041;-75
2022/07/29 01:57:02;;;;;;;5.45;2.97;;;;;;;;;;5039968;28;20038;-74
2022/07/29 01:59:29;;;;;;;4.38;3.03;;;;;;;;;;5022827;28;20036;-75
2022/07/29 02:01:57;;;;;;;5.05;3.17;;;;;;;;;;5039746;28;20050;-75
2022/07/29 02:04:24;;;;;;;5.93;2.92;;;;;;;;;;5022647;28;20093;-74
2022/07/29 02:06:53;;;;;;;4.78;2.80;;;;;;;;;;5054418;28;20053;-75
2022/07/29 02:09:20;;;;;;;5.97;3.10;;;;;;;;;;5006503;28;20022;-75
2022/07/29 02:11:49;;;;;;;4.57;3.15;;;;;;;;;;5039485;28;20030;-75
2022/07/29 02:14:15;;;;;;;3.97;3.10;;;;;;;;;;5047669;28;20039;-75
2022/07/29 02:16:42;;;;;;;4.22;2.88;;;;;;;;;;5055706;28;20065;-74
2022/07/29 02:19:08;;;;;;;6.65;2.75;;;;;;;;;;5039494;28;20037;-75
2022/07/29 02:21:35;;;;;;;6.10;2.83;;;;;;;;;;5038515;28;20086;-75
2022/07/29 02:24:02;;;;;;;5.18;2.88;;;;;;;;;;5039386;28;20090;-74
2022/07/29 02:26:29;;;;;;;4.47;2.75;;;;;;;;;;5039286;28;20030;-75
2022/07/29 02:28:56;;;;;;;4.72;2.90;;;;;;;;;;5039312;28;20026;-75
2022/07/29 02:31:24;;;;;;;4.90;2.92;;;;;;;;;;5038955;28;20034;-75
2022/07/29 02:33:51;;;;;;;4.18;2.60;;;;;;;;;;5022214;28;20045;-74
2022/07/29 02:36:17;;;;;;;5.85;3.00;;;;;;;;;;5021691;28;20085;-75
2022/07/29 02:38:54;;;;;;;6.93;2.67;;;;;;;;;;5021167;28;20049;-75
2022/07/29 02:41:30;;;;;;;3.85;2.65;;;;;;;;;;5026774;28;20030;-75
2022/07/29 02:44:02;;;;;;;5.30;2.60;;;;;;;;;;5039014;28;20049;-74
2022/07/29 02:46:30;;;;;;;4.57;2.80;;;;;;;;;;5038324;28;20049;-75
2022/07/29 02:49:15;;;;;;;5.55;2.72;;;;;;;;;;5021600;28;20038;-75
2022/07/29 02:51:46;;;;;;;4.32;2.80;;;;;;;;;;5037891;28;20033;-75
2022/07/29 02:54:20;;;;;;;4.15;2.60;;;;;;;;;;5038874;28;20037;-75
2022/07/29 02:56:46;;;;;;;4.65;2.78;;;;;;;;;;5038858;28;20036;-75
2022/07/29 02:59:13;;;;;;;3.70;2.97;;;;;;;;;;5021934;28;20041;-75
2022/07/29 03:01:43;;;;;;;3.25;2.63;;;;;;;;;;5020030;28;20030;-75
2022/07/29 03:04:10;;;;;;;5.53;2.90;;;;;;;;;;5037419;28;20049;-75
2022/07/29 03:06:37;;;;;;;3.53;2.80;;;;;;;;;;5038749;28;20050;-75
2022/07/29 03:09:03;;;;;;;6.15;3.00;;;;;;;;;;5039963;28;20030;-74
2022/07/29 03:11:29;;;;;;;5.60;2.60;;;;;;;;;;5021214;28;20030;-74
2022/07/29 03:13:56;;;;;;;5.03;2.65;;;;;;;;;;5021736;28;20041;-75
2022/07/29 03:16:23;;;;;;;4.55;2.80;;;;;;;;;;5021541;28;20026;-75
2022/07/29 03:18:50;;;;;;;4.80;2.75;;;;;;;;;;5037811;28;20045;-75
2022/07/29 03:21:16;;;;;;;4.03;2.42;;;;;;;;;;5038210;28;20089;-75
2022/07/29 03:23:46;;;;;;;5.70;3.13;;;;;;;;;;5038592;28;20086;-74
2022/07/29 03:26:12;;;;;;;4.63;2.70;;;;;;;;;;5037987;28;20049;-75
2022/07/29 03:28:38;;;;;;;3.70;2.60;;;;;;;;;;5021436;28;20072;-75
2022/07/29 03:31:05;;;;;;;3.53;2.33;;;;;;;;;;5021142;28;20026;-75
2022/07/29 03:33:31;;;;;;;4.07;2.50;;;;;;;;;;5021116;28;20026;-76
2022/07/29 03:35:58;;;;;;;4.65;2.63;;;;;;;;;;5028953;28;20029;-73
2022/07/29 03:38:25;;;;;;;3.75;2.58;;;;;;;;;;5058304;28;20037;-74
2022/07/29 03:40:56;;;;;;;4.78;2.40;;;;;;;;;;5040812;28;20061;-75
2022/07/29 03:43:23;;;;;;;4.18;2.28;;;;;;;;;;5005305;28;20038;-74
2022/07/29 03:45:52;;;;;;;4.47;2.78;;;;;;;;;;5020662;28;20041;-76
2022/07/29 03:48:20;;;;;;;3.22;2.53;;;;;;;;;;5037882;28;20030;-75
2022/07/29 03:50:46;;;;;;;4.68;2.60;;;;;;;;;;5056532;28;20061;-75
2022/07/29 03:53:12;;;;;;;5.97;2.28;;;;;;;;;;5058120;28;20034;-75
2022/07/29 03:55:42;;;;;;;4.82;2.47;;;;;;;;;;5032310;28;20050;-82
2022/07/29 03:58:08;;;;;;;7.72;2.78;;;;;;;;;;5035388;28;20037;-75
2022/07/29 04:00:35;;;;;;;4.50;2.60;;;;;;;;;;5024654;28;20034;-75
2022/07/29 04:03:03;;;;;;;4.80;2.67;;;;;;;;;;5041942;28;20033;-75
2022/07/29 04:05:29;;;;;;;3.22;2.70;;;;;;;;;;5061768;28;20105;-75
2022/07/29 04:07:55;;;;;;;6.03;2.60;;;;;;;;;;5061721;28;20029;-75
2022/07/29 04:10:24;;;;;;;4.93;2.53;;;;;;;;;;5027079;28;20045;-75
2022/07/29 04:12:50;;;;;;;4.07;2.53;;;;;;;;;;5041611;28;20053;-75
2022/07/29 04:15:16;;;;;;;5.88;2.63;;;;;;;;;;5041724;28;20026;-75
2022/07/29 04:17:42;;;;;;;4.50;2.67;;;;;;;;;;5041115;28;20040;-74
2022/07/29 04:20:09;;;;;;;3.80;2.50;;;;;;;;;;5041594;28;20056;-76
2022/07/29 04:22:35;;;;;;;4.95;2.80;;;;;;;;;;5061368;28;20076;-74
2022/07/29 04:25:01;;;;;;;4.95;2.70;;;;;;;;;;5044068;28;20036;-75
2022/07/29 04:27:27;;;;;;;4.68;2.47;;;;;;;;;;5041373;28;20022;-75
2022/07/29 04:29:53;;;;;;;4.40;2.85;;;;;;;;;;5024647;28;20044;-76
2022/07/29 04:32:19;;;;;;;3.83;2.88;;;;;;;;;;5050768;28;20105;-75
2022/07/29 04:34:46;;;;;;;3.80;2.55;;;;;;;;;;5027839;28;20032;-75
2022/07/29 04:37:12;;;;;;;3.00;2.65;;;;;;;;;;5044336;28;20030;-75
2022/07/29 04:39:38;;;;;;;3.97;2.80;;;;;;;;;;5044517;28;20049;-75
2022/07/29 04:42:04;;;;;;;5.90;2.80;;;;;;;;;;5041061;28;20085;-75
2022/07/29 04:44:30;;;;;;;4.20;2.75;;;;;;;;;;5040982;28;20032;-74
2022/07/29 04:46:57;;;;;;;6.10;2.70;;;;;;;;;;5038787;28;20041;-74
2022/07/29 04:49:23;;;;;;;3.78;2.80;;;;;;;;;;5045102;28;20026;-75
2022/07/29 04:51:49;;;;;;;5.30;3.05;;;;;;;;;;5024220;28;20045;-77
2022/07/29 04:54:15;;;;;;;6.70;2.58;;;;;;;;;;5040595;28;20026;-74
2022/07/29 04:56:41;;;;;;;6.07;3.03;;;;;;;;;;5039780;28;20038;-75
2022/07/29 04:59:07;;;;;;;4.38;2.85;;;;;;;;;;5024122;28;20061;-75
2022/07/29 05:01:33;;;;;;;4.97;2.60;;;;;;;;;;5041487;28;20064;-75
2022/07/29 05:03:59;;;;;;;8.52;2.95;;;;;;;;;;5023631;28;20097;-75
2022/07/29 05:06:25;;;;;;;5.47;2.67;;;;;;;;;;5056783;28;20034;-75
2022/07/29 05:08:51;;;;;;;4.25;2.75;;;;;;;;;;5039854;28;20030;-74
2022/07/29 05:11:17;;;;;;;4.13;2.90;;;;;;;;;;5023857;28;20034;-75
2022/07/29 05:13:43;;;;;;;4.03;2.80;;;;;;;;;;5023717;28;20061;-75
2022/07/29 05:16:09;;;;;;;4.55;2.75;;;;;;;;;;5040053;28;20026;-75
2022/07/29 05:18:35;;;;;;;5.03;2.65;;;;;;;;;;5023960;28;20052;-75
2022/07/29 05:21:02;;;;;;;4.95;2.30;;;;;;;;;;5016950;28;20075;-75
2022/07/29 05:23:28;;;;;;;4.82;2.80;;;;;;;;;;5029460;28;20061;-75
2022/07/29 05:25:54;;;;;;;4.15;2.35;;;;;;;;;;5040197;28;20029;-75
2022/07/29 05:28:20;;;;;;;4.95;2.70;;;;;;;;;;5050307;28;20105;-74
2022/07/29 05:30:46;;;;;;;4.70;2.78;;;;;;;;;;5027741;28;20026;-75
2022/07/29 05:33:12;;;;;;;7.00;2.60;;;;;;;;;;5040097;28;20128;-74
2022/07/29 05:35:38;;;;;;;4.55;2.72;;;;;;;;;;5023356;28;20053;-75
2022/07/29 05:38:04;;;;;;;6.53;2.75;;;;;;;;;;5022914;28;20065;-75
2022/07/29 05:40:30;;;;;;;4.65;2.40;;;;;;;;;;5023187;28;20042;-75
2022/07/29 05:42:56;;;;;;;6.13;2.80;;;;;;;;;;5040238;28;20029;-75
2022/07/29 05:45:24;;;;;;;4.38;2.88;;;;;;;;;;5038146;28;20034;-75
2022/07/29 05:47:50;;;;;;;3.80;2.58;;;;;;;;;;5020463;28;20072;-73
2022/07/29 05:50:16;;;;;;;5.32;2.80;;;;;;;;;;5027199;28;20046;-73
2022/07/29 05:52:42;;;;;;;7.07;2.50;;;;;;;;;;5014614;28;20045;-73
2022/07/29 05:55:08;;;;;;;5.00;2.58;;;;;;;;;;5015163;28;20044;-72
2022/07/29 05:57:34;;;;;;;6.47;2.90;;;;;;;;;;5045700;28;20094;-72
2022/07/29 06:00:04;;;;;;;4.93;2.65;;;;;;;;;;5030841;28;20513;-72
2022/07/29 06:02:30;;;;;;;4.28;2.53;;;;;;;;;;5020373;28;20049;-73
2022/07/29 06:04:56;;;;;;;4.97;2.40;;;;;;;;;;5028977;28;20041;-76
2022/07/29 06:07:22;;;;;;;5.95;2.50;;;;;;;;;;5035624;28;20053;-73
2022/07/29 06:09:48;;;;;;;4.53;2.47;;;;;;;;;;5017366;28;20080;-73
2022/07/29 06:12:17;;;;;;;5.40;2.60;;;;;;;;;;5034239;28;20046;-73
2022/07/29 06:14:43;;;;;;;4.57;2.40;;;;;;;;;;5035116;28;20029;-73
2022/07/29 06:17:11;;;;;;;8.00;2.60;;;;;;;;;;5038141;28;20045;-73
2022/07/29 06:19:37;;;;;;;4.65;2.80;;;;;;;;;;5035504;28;20076;-73
2022/07/29 06:22:03;;;;;;;3.65;2.40;;;;;;;;;;5035586;28;20092;-73
2022/07/29 06:24:29;;;;;;;7.40;2.35;;;;;;;;;;5050442;28;20123;-73
2022/07/29 06:26:55;;;;;;;4.20;2.70;;;;;;;;;;5054705;28;20060;-73
2022/07/29 06:29:21;;;;;;;6.32;2.85;;;;;;;;;;5043495;28;20072;-73
2022/07/29 06:31:48;;;;;;;6.45;2.50;;;;;;;;;;5018127;28;20575;-74
2022/07/29 06:34:14;;;;;;;5.22;2.60;;;;;;;;;;5033887;28;20049;-73
2022/07/29 06:36:40;;;;;;;7.25;2.85;;;;;;;;;;5033277;28;20025;-74
2022/07/29 06:39:07;;;;;;;6.07;2.28;;;;;;;;;;5028783;28;20042;-73
2022/07/29 06:41:33;;;;;;;3.88;2.38;;;;;;;;;;5030058;28;20046;-73
2022/07/29 06:43:59;;;;;;;7.32;2.42;;;;;;;;;;5013052;28;20090;-73
2022/07/29 06:46:25;;;;;;;6.60;2.53;;;;;;;;;;5048685;28;20081;-74
2022/07/29 06:48:52;;;;;;;6.88;2.65;;;;;;;;;;5017355;28;20050;-72
2022/07/29 06:51:18;;;;;;;6.97;2.50;;;;;;;;;;5033139;28;20100;-73
2022/07/29 06:53:44;;;;;;;5.93;2.50;;;;;;;;;;5034130;28;20034;-73
2022/07/29 06:56:12;;;;;;;4.45;2.40;;;;;;;;;;5034938;28;20128;-74
2022/07/29 06:58:38;;;;;;;4.70;2.33;;;;;;;;;;5035600;28;20049;-73
2022/07/29 07:01:05;;;;;;;5.82;2.75;;;;;;;;;;5018163;28;20109;-73
2022/07/29 07:03:32;;;;;;;4.78;2.45;;;;;;;;;;5028820;28;20049;-74
2022/07/29 07:05:58;;;;;;;4.90;2.28;;;;;;;;;;4998621;28;20114;-74
2022/07/29 07:08:24;;;;;;;5.75;2.50;;;;;;;;;;5014865;28;20045;-73
2022/07/29 07:10:51;;;;;;;6.80;2.45;;;;;;;;;;5034696;28;20064;-73
2022/07/29 07:13:17;;;;;;;6.55;3.08;;;;;;;;;;5035110;28;20102;-73
2022/07/29 07:15:43;;;;;;;5.20;2.33;;;;;;;;;;5034549;28;20048;-73
2022/07/29 07:18:09;;;;;;;5.28;2.42;;;;;;;;;;5036993;28;20057;-76
2022/07/29 07:20:36;;;;;;;6.25;2.72;;;;;;;;;;5045216;28;20058;-75
2022/07/29 07:23:02;;;;;;;5.15;2.67;;;;;;;;;;5012526;28;20026;-80
2022/07/29 07:25:29;;;;;;;4.45;2.22;;;;;;;;;;5052903;28;20057;-75
2022/07/29 07:27:55;;;;;;;5.68;2.75;;;;;;;;;;4999756;28;20046;-76
2022/07/29 07:30:21;;;;;;;5.63;2.80;;;;;;;;;;5003037;28;20095;-75
2022/07/29 07:32:47;;;;;;;6.10;2.55;;;;;;;;;;5037140;28;20101;-75
2022/07/29 07:35:13;;;;;;;4.63;2.50;;;;;;;;;;5038071;28;20030;-75
2022/07/29 07:37:42;;;;;;;11.13;2.88;;;;;;;;;;5038172;28;20094;-75
2022/07/29 07:40:09;;;;;;;6.47;2.53;;;;;;;;;;5037502;28;20030;-80
2022/07/29 07:42:35;;;;;;;3.40;2.40;;;;;;;;;;5049247;28;20061;-76
2022/07/29 07:45:01;;;;;;;7.07;2.65;;;;;;;;;;5049146;28;20065;-79
2022/07/29 07:47:27;;;;;;;5.30;2.40;;;;;;;;;;5030507;28;20482;-81
2022/07/29 07:49:53;;;;;;;6.32;2.65;;;;;;;;;;4989985;28;20068;-80
2022/07/29 07:52:20;;;;;;;4.55;2.72;;;;;;;;;;5017402;28;20072;-79
2022/07/29 07:54:46;;;;;;;4.82;2.60;;;;;;;;;;5019535;28;20092;-76
2022/07/29 07:57:12;;;;;;;8.45;2.90;;;;;;;;;;5036806;28;20044;-74
2022/07/29 07:59:39;;;;;;;4.00;2.28;;;;;;;;;;5012866;28;20137;-83
2022/07/29 08:02:05;;;;;;;3.95;2.47;;;;;;;;;;5048125;28;20054;-76
2022/07/29 08:04:31;;;;;;;7.70;2.80;;;;;;;;;;5035134;28;20468;-75
2022/07/29 08:06:58;;;;;;;5.85;2.85;;;;;;;;;;5018540;28;20037;-75
2022/07/29 08:09:24;;;;;;;4.43;2.85;;;;;;;;;;5037915;28;20053;-77
2022/07/29 08:11:50;;;;;;;6.57;2.63;;;;;;;;;;5036612;28;20033;-75
2022/07/29 08:14:17;;;;;;;4.80;2.70;;;;;;;;;;5034675;28;20060;-77
2022/07/29 08:16:43;;;;;;;6.18;2.70;;;;;;;;;;5033619;28;20053;-75
2022/07/29 08:19:09;;;;;;;5.57;3.22;;;;;;;;;;5019717;28;20047;-75
2022/07/29 08:21:35;;;;;;;7.00;3.22;;;;;;;;;;5037565;28;20064;-75
2022/07/29 08:26:46;;;;;;;5.65;2.90;;;;;;;;;;5051333;28;20061;-75
2022/07/29 08:29:12;;;;;;;8.20;2.67;;;;;;;;;;5037606;28;20030;-75
2022/07/29 08:31:39;;;;;;;5.63;2.75;;;;;;;;;;5037566;28;20089;-75
2022/07/29 08:34:05;;;;;;;4.20;2.75;;;;;;;;;;5036305;28;20346;-75
2022/07/29 08:36:32;;;;;;;6.32;2.50;;;;;;;;;;5034150;28;20030;-75
2022/07/29 08:38:59;;;;;;;4.70;2.75;;;;;;;;;;5021406;28;20093;-75
2022/07/29 08:41:25;;;;;;;5.38;2.88;;;;;;;;;;5040883;28;20049;-74
2022/07/29 08:43:52;;;;;;;4.30;2.63;;;;;;;;;;5023843;28;20034;-76
2022/07/29 08:46:19;;;;;;;7.53;2.90;;;;;;;;;;5040865;28;20041;-77
2022/07/29 08:48:45;;;;;;;4.50;2.72;;;;;;;;;;5040169;28;20033;-75
2022/07/29 08:51:19;;;;;;;4.43;2.55;;;;;;;;;;5039960;28;20034;-76
2022/07/29 08:53:47;;;;;;;5.78;2.70;;;;;;;;;;5024066;28;20045;-75
2022/07/29 08:56:14;;;;;;;4.78;2.85;;;;;;;;;;5040924;28;20034;-75
2022/07/29 08:58:40;;;;;;;5.05;2.78;;;;;;;;;;5040677;28;20026;-75
2022/07/29 09:01:06;;;;;;;7.30;2.70;;;;;;;;;;5023530;28;20036;-74
2022/07/29 09:03:34;;;;;;;7.88;2.72;;;;;;;;;;5042428;28;20041;-76
2022/07/29 09:06:01;;;;;;;5.25;3.17;;;;;;;;;;5025883;28;20057;-75
2022/07/29 09:08:28;;;;;;;5.65;2.80;;;;;;;;;;5004274;28;20114;-76
2022/07/29 09:10:55;;;;;;;6.72;2.75;;;;;;;;;;5033043;28;20037;-76
2022/07/29 09:13:21;;;;;;;5.70;2.95;;;;;;;;;;5039615;28;20041;-75
2022/07/29 09:15:47;;;;;;;3.53;2.75;;;;;;;;;;5039922;28;20046;-75
2022/07/29 09:18:33;;;;;;;8.63;3.30;;;;;;;;;;5023487;28;20033;-76
2022/07/29 09:24:02;;;;;;;4.45;3.10;;;;;;;;;;5003783;28;20097;-76
2022/07/29 09:26:30;;;;;;;8.50;3.20;;;;;;;;;;5049294;28;20038;-78
2022/07/29 09:28:56;;;;;;;4.53;3.30;;;;;;;;;;5039290;28;20073;-74
2022/07/29 09:31:42;;;;;;;7.28;3.83;;;;;;;;;;5030426;28;20049;-76
2022/07/29 09:34:09;;;;;;;6.78;3.10;;;;;;;;;;5021798;28;20029;-73
2022/07/29 09:36:43;;;;;;;5.10;3.10;;;;;;;;;;5039345;28;20065;-75
2022/07/29 09:39:11;;;;;;;4.63;3.00;;;;;;;;;;5056077;28;20061;-75
2022/07/29 09:41:48;;;;;;;6.10;3.28;;;;;;;;;;5036648;28;20041;-75
2022/07/29 09:44:14;;;;;;;7.47;3.25;;;;;;;;;;5010448;28;20049;-75
2022/07/29 09:46:41;;;;;;;6.63;3.38;;;;;;;;;;5038354;28;20094;-75
2022/07/29 09:49:14;;;;;;;6.32;3.08;;;;;;;;;;5002957;28;20056;-75
2022/07/29 09:51:41;;;;;;;7.40;3.22;;;;;;;;;;5003322;28;20054;-75
2022/07/29 09:54:26;;;;;;;5.90;3.22;;;;;;;;;;5019952;28;20067;-75
2022/07/29 09:56:52;;;;;;;7.00;3.38;;;;;;;;;;5020063;28;20040;-75
2022/07/29 09:59:20;;;;;;;8.57;3.78;;;;;;;;;;5021811;28;20030;-75
2022/07/29 10:01:46;;;;;;;7.03;3.28;;;;;;;;;;5038610;28;20041;-76
2022/07/29 10:04:12;;;;;;;6.10;3.20;;;;;;;;;;5039453;28;20056;-77
2022/07/29 10:06:58;;;;;;;8.82;3.60;;;;;;;;;;5035633;28;20038;-75
2022/07/29 10:09:24;;;;;;;5.57;3.40;;;;;;;;;;5010516;28;20026;-73
2022/07/29 10:12:06;;;;;;;6.25;3.17;;;;;;;;;;5018063;28;20077;-81
2022/07/29 10:14:33;;;;;;;7.30;3.70;;;;;;;;;;5026104;28;20050;-73
2022/07/29 10:17:03;;;;;;;6.55;3.50;;;;;;;;;;5018433;28;20069;-72
2022/07/29 10:19:31;;;;;;;5.65;3.70;;;;;;;;;;5037062;28;20040;-73
2022/07/29 10:21:58;;;;;;;6.18;3.20;;;;;;;;;;5033412;28;20034;-75
2022/07/29 10:24:25;;;;;;;6.38;3.20;;;;;;;;;;5034124;28;20064;-72
2022/07/29 10:26:52;;;;;;;5.07;3.60;;;;;;;;;;5037008;28;20029;-73
2022/07/29 10:29:18;;;;;;;6.82;3.50;;;;;;;;;;5033080;28;20049;-73
2022/07/29 10:32:03;;;;;;;7.40;3.25;;;;;;;;;;5013137;28;20050;-72
2022/07/29 10:34:43;;;;;;;6.50;3.20;;;;;;;;;;5016018;28;20049;-74
2022/07/29 10:37:28;;;;;;;6.22;3.60;;;;;;;;;;5038782;28;20074;-75
2022/07/29 10:41:25;;;;;;;5.13;3.38;;;;;;;;;;5038946;28;20034;-74
2022/07/29 10:42:49;;;;;;;8.73;3.85;;;;;;;;;;5021937;28;20049;-76
2022/07/29 10:45:17;;;;;;;5.65;3.30;;;;;;;;;;5037942;28;20085;-75
2022/07/29 10:47:43;;;;;;;5.35;3.53;;;;;;;;;;5038749;28;20045;-73
2022/07/29 10:50:09;;;;;;;6.82;3.42;;;;;;;;;;5038512;28;20029;-74
2022/07/29 10:52:52;;;;;;;7.57;3.80;;;;;;;;;;5038488;28;20037;-74
2022/07/29 10:55:33;;;;;;;7.03;3.65;;;;;;;;;;5040388;28;20053;-73
2022/07/29 10:58:23;;;;;;;5.90;3.60;;;;;;;;;;5027157;28;20033;-74
2022/07/29 11:00:53;;;;;;;6.03;3.45;;;;;;;;;;5001861;28;20034;-75
2022/07/29 11:03:38;;;;;;;6.32;4.13;;;;;;;;;;5038072;28;20052;-75
2022/07/29 11:06:04;;;;;;;7.38;3.60;;;;;;;;;;5038571;28;20089;-76
2022/07/29 11:08:30;;;;;;;8.27;4.22;;;;;;;;;;5038613;28;20033;-74
2022/07/29 11:11:15;;;;;;;8.50;3.78;;;;;;;;;;5021668;28;20037;-75
2022/07/29 11:13:46;;;;;;;9.18;3.97;;;;;;;;;;5037034;28;20557;-76
2022/07/29 11:16:12;;;;;;;6.40;3.47;;;;;;;;;;5019781;28;20094;-73
2022/07/29 11:18:57;;;;;;;7.18;3.38;;;;;;;;;;5038140;28;20021;-71
2022/07/29 11:21:46;;;;;;;8.25;3.55;;;;;;;;;;5038210;28;20033;-74
2022/07/29 11:24:16;;;;;;;6.70;3.22;;;;;;;;;;5037866;28;20041;-78
2022/07/29 11:26:43;;;;;;;8.02;3.70;;;;;;;;;;5056400;28;20067;-73
2022/07/29 11:29:24;;;;;;;6.57;3.40;;;;;;;;;;5039988;28;20041;-77
2022/07/29 11:31:54;;;;;;;8.20;3.78;;;;;;;;;;5028803;28;20029;-77
2022/07/29 11:34:27;;;;;;;6.80;4.40;;;;;;;;;;5032270;28;20097;-80
2022/07/29 11:37:19;;;;;;;15.02;6.10;;;;;;;;;;5037239;28;20034;-76
2022/07/29 11:39:47;;;;;;;10.10;4.00;;;;;;;;;;4999903;28;20050;-75
2022/07/29 11:42:22;;;;;;;8.20;3.88;;;;;;;;;;5018452;28;20027;-76
2022/07/29 11:44:59;;;;;;;20.67;7.25;;;;;;;;;;5018123;28;20057;-76
2022/07/29 11:47:26;;;;;;;4.90;3.42;;;;;;;;;;5020291;28;20046;-76
2022/07/29 11:49:54;;;;;;;5.70;4.15;;;;;;;;;;5037874;28;21241;-75
2022/07/29 11:52:20;;;;;;;8.73;3.97;;;;;;;;;;5025437;28;20081;-76
2022/07/29 11:54:48;;;;;;;9.85;4.97;;;;;;;;;;5053473;28;20034;-76
2022/07/29 11:57:16;;;;;;;5.28;3.72;;;;;;;;;;5027070;28;20048;-75
2022/07/29 11:59:43;;;;;;;17.88;7.47;;;;;;;;;;5035517;28;20094;-76
2022/07/29 12:02:10;;;;;;;13.10;6.38;;;;;;;;;;5036502;28;20033;-77
2022/07/29 12:04:55;;;;;;;7.97;4.30;;;;;;;;;;5044640;28;20053;-76
2022/07/29 12:07:31;;;;;;;10.33;4.23;;;;;;;;;;5020558;28;20034;-75
2022/07/29 12:09:57;;;;;;;14.02;5.78;;;;;;;;;;5053688;28;20037;-75
2022/07/29 12:12:23;;;;;;;38.58;15.98;;;;;;;;;;5044073;28;20033;-78
2022/07/29 12:14:50;;;;;;;8.50;5.63;;;;;;;;;;5023323;28;20073;-76
2022/07/29 12:17:25;;;;;;;12.00;6.60;;;;;;;;;;5051760;28;20065;-76
2022/07/29 12:19:52;;;;;;;21.65;8.73;;;;;;;;;;5037205;28;20106;-77
2022/07/29 12:22:28;;;;;;;24.80;10.98;;;;;;;;;;5055256;28;20038;-76
2022/07/29 12:24:54;;;;;;;7.13;4.43;;;;;;;;;;5040780;28;20053;-77
2022/07/29 12:27:21;;;;;;;7.72;4.25;;;;;;;;;;5041226;28;20030;-77
2022/07/29 12:30:00;;;;;;;9.32;4.72;;;;;;;;;;5041220;28;20057;-72
2022/07/29 12:32:46;;;;;;;6.45;4.28;;;;;;;;;;5021314;28;20057;-81
2022/07/29 12:35:13;;;;;;;7.95;4.82;;;;;;;;;;5039112;28;20052;-76
2022/07/29 12:37:40;;;;;;;7.97;4.32;;;;;;;;;;5023663;28;20057;-83
2022/07/29 18:45:17;;;;;;;6.57;3.53;;;;;;;;;;5133652;27;20532;-75
2022/07/29 18:47:43;;;;;;;7.85;3.30;;;;;;;;;;5114964;28;20061;-77
2022/07/29 18:50:10;;;;;;;6.78;3.13;;;;;;;;;;5115278;28;20071;-75
2022/07/29 18:52:38;;;;;;;6.00;3.20;;;;;;;;;;5104244;28;20052;-75
2022/07/29 18:55:04;;;;;;;6.57;3.30;;;;;;;;;;5094848;28;20051;-76
2022/07/29 18:57:30;;;;;;;4.97;3.20;;;;;;;;;;5109882;28;20116;-78
2022/07/29 18:59:56;;;;;;;6.43;3.58;;;;;;;;;;5114500;28;20056;-76
2022/07/29 19:02:23;;;;;;;5.15;3.30;;;;;;;;;;5114951;28;20035;-76
2022/07/29 19:04:49;;;;;;;6.20;3.20;;;;;;;;;;5113966;28;20040;-76
2022/07/29 19:07:20;;;;;;;4.82;3.20;;;;;;;;;;5107231;28;20078;-77
2022/07/29 19:09:46;;;;;;;5.13;3.00;;;;;;;;;;5095121;28;20029;-77
2022/07/29 19:12:12;;;;;;;6.03;3.13;;;;;;;;;;5115268;28;20032;-76
2022/07/29 19:14:38;;;;;;;8.10;3.30;;;;;;;;;;5114018;28;20064;-76
2022/07/29 19:17:05;;;;;;;6.45;4.10;;;;;;;;;;5097078;28;20032;-76
2022/07/29 19:19:31;;;;;;;5.80;3.58;;;;;;;;;;5111853;28;20024;-76
2022/07/29 19:21:57;;;;;;;5.60;3.92;;;;;;;;;;5112995;28;20028;-76
2022/07/29 19:24:23;;;;;;;10.82;4.28;;;;;;;;;;5114372;28;20028;-76
2022/07/29 19:26:49;;;;;;;6.95;3.90;;;;;;;;;;5114449;28;20099;-76
2022/07/29 19:29:25;;;;;;;6.30;3.92;;;;;;;;;;5114852;28;20032;-78
2022/07/29 19:31:51;;;;;;;11.70;4.00;;;;;;;;;;5114986;28;20037;-78
2022/07/29 19:34:17;;;;;;;7.70;4.03;;;;;;;;;;5114392;28;20032;-78
2022/07/29 19:36:43;;;;;;;7.22;4.57;;;;;;;;;;5114184;28;20052;-78
2022/07/29 19:39:10;;;;;;;6.75;4.03;;;;;;;;;;5114407;28;20060;-78
2022/07/29 19:41:36;;;;;;;6.95;4.32;;;;;;;;;;5114043;28;20035;-79
2022/07/29 19:44:02;;;;;;;6.82;4.95;;;;;;;;;;5114368;28;20051;-78
2022/07/29 19:46:29;;;;;;;6.13;4.88;;;;;;;;;;5113461;28;20048;-79
2022/07/29 19:48:55;;;;;;;9.10;4.90;;;;;;;;;;5113986;28;20088;-75
2022/07/29 19:51:22;;;;;;;7.35;4.68;;;;;;;;;;5098807;28;20028;-76
2022/07/29 19:53:49;;;;;;;6.40;4.95;;;;;;;;;;5113333;28;20032;-75
2022/07/29 19:56:15;;;;;;;8.02;5.35;;;;;;;;;;5103056;28;20036;-77
2022/07/29 19:58:43;;;;;;;8.85;5.20;;;;;;;;;;5100041;28;20088;-76
2022/07/29 20:01:10;;;;;;;8.43;5.32;;;;;;;;;;5100451;28;20040;-76
2022/07/29 20:03:36;;;;;;;9.25;5.60;;;;;;;;;;5100572;28;20032;-75
2022/07/29 20:06:02;;;;;;;8.02;5.22;;;;;;;;;;5099570;28;20038;-76
2022/07/29 20:08:28;;;;;;;7.22;5.30;;;;;;;;;;5100661;28;20051;-75
2022/07/29 20:10:54;;;;;;;9.38;5.57;;;;;;;;;;5100610;28;20025;-76
2022/07/29 20:13:20;;;;;;;7.60;5.07;;;;;;;;;;5100032;28;20036;-75
2022/07/29 20:15:46;;;;;;;8.27;5.30;;;;;;;;;;5099667;28;20085;-77
2022/07/29 20:18:15;;;;;;;7.43;5.05;;;;;;;;;;5100451;28;20029;-76
2022/07/29 20:20:41;;;;;;;8.63;5.18;;;;;;;;;;5099305;28;20051;-76
2022/07/29 20:23:07;;;;;;;8.57;5.35;;;;;;;;;;5099949;28;20024;-77
2022/07/29 20:25:35;;;;;;;6.45;5.00;;;;;;;;;;5082901;28;20037;-79
2022/07/29 21:47:26;;;;;;;8.05;5.57;;;;;;;;;;5095116;27;1947588;-80
2022/07/29 21:49:52;;;;;;;9.45;5.43;;;;;;;;;;5136068;27;20110;-75
2022/07/29 21:52:18;;;;;;;9.75;5.40;;;;;;;;;;5118795;27;20028;-75
2022/07/29 21:54:45;;;;;;;7.82;5.38;;;;;;;;;;5136153;27;20024;-74
2022/07/29 21:57:11;;;;;;;10.68;5.53;;;;;;;;;;5141876;27;20031;-76
2022/07/29 21:59:37;;;;;;;9.63;5.22;;;;;;;;;;5156541;27;20019;-76
2022/07/29 22:02:03;;;;;;;7.50;5.22;;;;;;;;;;5155476;27;20051;-76
2022/07/29 22:04:29;;;;;;;6.55;4.93;;;;;;;;;;5156533;27;20034;-75
2022/07/29 22:06:56;;;;;;;11.70;5.93;;;;;;;;;;5156310;27;20027;-76
2022/07/29 22:09:22;;;;;;;8.75;5.95;;;;;;;;;;5113881;27;20043;-76
2022/07/29 22:11:48;;;;;;;8.13;5.93;;;;;;;;;;5138957;27;20036;-76
2022/07/29 22:14:16;;;;;;;9.75;5.63;;;;;;;;;;5127883;27;20031;-76
2022/07/29 22:16:42;;;;;;;8.30;6.03;;;;;;;;;;5142062;27;20020;-76
2022/07/29 22:19:08;;;;;;;9.60;6.10;;;;;;;;;;5136902;27;20035;-75
2022/07/29 22:21:34;;;;;;;8.40;6.15;;;;;;;;;;5135974;27;20092;-77